Time;durP1;ratioP1;P1;durP2;ratioP2;P2;SDS_P1;SDS_P2;PMS_P1;PMS_P2;Temp;Humidity;BMP_temperature;BMP_pressure;BME280_temperature;BME280_humidity;BME280_pressure;Samples;Min_cycle;Max_cycle;Signal;HPM_P1;HPM_P2
2022/06/05 00:03:38;;;;;;;9.82;6.70;;;;;;;14.85;96.84;101777.81;10566385;28;20139;-70
2022/06/05 00:08:43;;;;;;;7.25;6.53;;;;;;;14.85;95.94;101771.53;10586835;28;20036;-70
2022/06/05 00:13:52;;;;;;;13.73;5.55;;;;;;;14.83;96.94;101781.81;10567711;28;20024;-70
2022/06/05 00:18:53;;;;;;;7.82;5.95;;;;;;;14.85;96.50;101782.44;10533451;28;20044;-70
2022/06/05 00:23:53;;;;;;;12.95;6.70;;;;;;;14.82;96.58;101780.97;10584882;28;20035;-71
2022/06/05 00:28:59;;;;;;;9.57;6.15;;;;;;;14.82;96.81;101767.34;10584937;28;20042;-70
2022/06/05 00:34:00;;;;;;;9.32;6.82;;;;;;;14.80;97.13;101758.50;10585038;28;20035;-71
2022/06/05 00:39:13;;;;;;;9.80;5.97;;;;;;;14.79;96.75;101748.66;10583979;28;20031;-70
2022/06/05 00:44:16;;;;;;;8.98;6.75;;;;;;;14.82;96.34;101755.59;10565666;28;20036;-70
2022/06/05 00:49:16;;;;;;;8.02;5.93;;;;;;;14.84;96.03;101748.06;10584194;28;20062;-70
2022/06/05 00:54:17;;;;;;;9.07;5.32;;;;;;;14.80;96.21;101754.94;10548562;28;20114;-70
2022/06/05 00:59:18;;;;;;;14.57;6.50;;;;;;;14.64;96.88;101756.13;10583321;28;20388;-71
2022/06/05 01:04:19;;;;;;;8.60;5.97;;;;;;;14.21;99.82;101750.88;10574502;28;20040;-73
2022/06/05 01:09:19;;;;;;;17.17;7.15;;;;;;;13.83;100.00;101736.81;10572859;28;20031;-74
2022/06/05 01:14:34;;;;;;;16.33;7.40;;;;;;;13.53;100.00;101815.91;10532179;28;20089;-74
2022/06/05 01:19:41;;;;;;;9.88;7.20;;;;;;;13.62;100.00;101846.53;10564809;28;20084;-73
2022/06/05 01:24:55;;;;;;;9.45;8.38;;;;;;;13.65;100.00;101855.16;10564985;28;20076;-73
2022/06/05 01:30:08;;;;;;;17.02;10.38;;;;;;;13.83;100.00;101826.66;10548335;28;20032;-73
2022/06/05 01:35:21;;;;;;;9.55;8.43;;;;;;;13.85;99.33;101830.88;10567955;28;20032;-73
2022/06/05 01:40:31;;;;;;;16.35;7.93;;;;;;;13.89;98.53;101839.47;10566890;28;20027;-74
2022/06/05 01:45:38;;;;;;;14.45;9.20;;;;;;;13.70;100.00;101817.31;10547850;28;20030;-74
2022/06/05 01:50:40;;;;;;;13.75;7.72;;;;;;;13.70;99.58;101816.50;10563798;28;20027;-73
2022/06/05 01:55:48;;;;;;;13.00;10.00;;;;;;;13.61;100.00;101791.28;10565073;28;20358;-73
2022/06/05 02:00:51;;;;;;;11.63;7.47;;;;;;;13.58;100.00;101780.78;10555468;28;20480;-72
2022/06/05 02:05:54;;;;;;;13.65;8.77;;;;;;;13.46;100.00;101766.88;10590130;28;20048;-72
2022/06/05 02:11:17;;;;;;;10.95;8.00;;;;;;;13.33;100.00;101763.19;10539432;28;20039;-73
2022/06/05 02:16:17;;;;;;;13.32;8.18;;;;;;;13.23;100.00;101753.41;10574054;28;20028;-72
2022/06/05 02:21:18;;;;;;;12.05;9.25;;;;;;;13.07;100.00;101731.94;10554658;28;20439;-71
2022/06/05 02:26:19;;;;;;;15.00;9.02;;;;;;;13.03;100.00;101736.91;10572315;28;20035;-71
2022/06/05 02:31:25;;;;;;;21.52;9.23;;;;;;;13.01;100.00;101727.25;10571068;28;20047;-71
2022/06/05 02:36:36;;;;;;;13.52;9.13;;;;;;;12.86;100.00;101694.72;10570437;28;20039;-74
2022/06/05 02:41:54;;;;;;;11.02;9.90;;;;;;;12.87;100.00;101692.81;10571535;28;20036;-74
2022/06/05 02:47:19;;;;;;;14.80;10.20;;;;;;;12.94;100.00;101677.41;10554892;28;20031;-73
2022/06/05 02:52:20;;;;;;;8.40;7.50;;;;;;;12.97;100.00;101653.41;10589884;28;20028;-74
2022/06/05 02:57:20;;;;;;;13.60;11.38;;;;;;;12.92;100.00;101660.44;10553843;28;20057;-72
2022/06/05 03:07:40;;;;;;;23.25;11.50;;;;;;;12.81;100.00;101599.31;10587011;28;20052;-76
2022/06/05 03:12:40;;;;;;;19.77;10.35;;;;;;;12.76;100.00;101569.16;10588544;28;20023;-77
2022/06/05 03:17:42;;;;;;;12.13;9.07;;;;;;;12.81;100.00;101572.13;10587328;28;20502;-77
2022/06/05 03:22:42;;;;;;;18.98;11.23;;;;;;;12.68;100.00;101559.25;10587842;28;20035;-78
2022/06/05 03:27:43;;;;;;;15.18;11.50;;;;;;;12.60;100.00;101553.94;10576483;28;20118;-78
2022/06/05 03:32:43;;;;;;;16.15;11.75;;;;;;;12.53;100.00;101555.78;10577314;28;20027;-80
2022/06/05 03:37:44;;;;;;;24.35;11.85;;;;;;;12.48;100.00;101533.78;10574197;28;20031;-78
2022/06/05 03:42:44;;;;;;;21.00;14.48;;;;;;;12.39;100.00;101519.50;10588719;28;20028;-78
2022/06/05 03:47:45;;;;;;;14.63;10.73;;;;;;;12.33;100.00;101525.69;10586871;28;20036;-79
2022/06/05 03:52:45;;;;;;;22.17;13.07;;;;;;;12.26;100.00;101522.94;10586903;28;20413;-78
2022/06/05 03:57:46;;;;;;;21.60;14.07;;;;;;;12.24;100.00;101538.56;10568774;28;20095;-79
2022/06/05 04:02:47;;;;;;;15.05;11.73;;;;;;;12.19;100.00;101541.03;10567289;28;20047;-78
2022/06/05 04:07:47;;;;;;;19.92;12.80;;;;;;;12.22;100.00;101528.91;10589952;28;20092;-79
2022/06/05 04:12:49;;;;;;;17.45;12.65;;;;;;;12.21;100.00;101516.38;10586211;28;20072;-78
2022/06/05 04:17:49;;;;;;;16.15;13.48;;;;;;;12.19;100.00;101522.03;10584815;28;20111;-79
2022/06/05 04:22:50;;;;;;;18.83;15.32;;;;;;;12.21;100.00;101533.50;10550092;28;20047;-78
2022/06/05 04:27:51;;;;;;;20.02;15.07;;;;;;;12.16;100.00;101532.44;10585832;28;20036;-81
2022/06/05 04:32:52;;;;;;;18.80;13.10;;;;;;;12.23;100.00;101536.88;10567417;28;20388;-79
2022/06/05 04:37:52;;;;;;;16.25;14.48;;;;;;;12.21;100.00;101533.50;10550077;28;20028;-78
2022/06/05 04:42:53;;;;;;;21.08;13.70;;;;;;;12.14;100.00;101523.63;10586138;28;20067;-79
2022/06/05 04:47:54;;;;;;;18.00;14.18;;;;;;;12.21;100.00;101519.94;10584605;28;20042;-80
2022/06/05 04:52:54;;;;;;;20.02;13.90;;;;;;;12.22;100.00;101524.34;10567573;28;20039;-79
2022/06/05 04:57:55;;;;;;;18.80;15.30;;;;;;;12.29;100.00;101519.81;10584484;28;20428;-79
2022/06/05 05:02:55;;;;;;;25.77;16.55;;;;;;;12.26;100.00;101482.19;10583247;28;20052;-73
2022/06/05 05:07:55;;;;;;;18.63;16.15;;;;;;;12.22;100.00;101524.34;10565498;28;20040;-74
2022/06/05 05:12:56;;;;;;;21.38;14.88;;;;;;;12.25;100.00;101521.25;10548022;28;20037;-75
2022/06/05 05:17:57;;;;;;;23.48;15.25;;;;;;;12.25;100.00;101523.09;10566374;28;20043;-75
2022/06/05 05:22:58;;;;;;;26.10;15.85;;;;;;;12.32;100.00;101510.44;10583615;28;20417;-75
2022/06/05 05:27:58;;;;;;;20.95;13.93;;;;;;;12.44;100.00;101505.31;10564221;28;20031;-77
2022/06/05 05:32:59;;;;;;;26.35;16.55;;;;;;;12.53;100.00;101496.00;10582599;28;20042;-78
2022/06/05 05:37:59;;;;;;;21.17;14.43;;;;;;;12.60;100.00;101487.91;10548395;28;20413;-79
2022/06/05 05:42:59;;;;;;;19.83;15.88;;;;;;;12.63;100.00;101501.09;10582552;28;20084;-79
2022/06/05 05:48:00;;;;;;;14.07;12.65;;;;;;;12.65;100.00;101490.88;10548701;28;20042;-80
2022/06/05 05:53:00;;;;;;;13.45;12.15;;;;;;;12.67;100.00;101500.53;10591256;28;20084;-81
2022/06/05 05:58:01;;;;;;;19.98;13.85;;;;;;;12.74;100.00;101493.25;10578846;28;20028;-82
2022/06/05 06:03:01;;;;;;;16.05;13.70;;;;;;;12.79;100.00;101498.94;10571482;28;20051;-79
2022/06/05 06:08:01;;;;;;;24.40;13.90;;;;;;;12.79;100.00;101498.09;10566567;28;20115;-81
2022/06/05 06:13:02;;;;;;;25.55;15.10;;;;;;;12.77;100.00;101487.44;10565308;28;20051;-81
2022/06/05 06:18:02;;;;;;;26.92;14.65;;;;;;;12.88;100.00;101493.34;10563884;28;20035;-83
2022/06/05 06:23:03;;;;;;;22.08;16.52;;;;;;;12.93;100.00;101509.91;10581341;28;20027;-83
2022/06/05 06:28:04;;;;;;;21.15;14.40;;;;;;;12.99;100.00;101514.56;10582433;28;20034;-81
2022/06/05 06:33:05;;;;;;;29.05;17.80;;;;;;;13.00;100.00;101508.09;10583028;28;20039;-81
2022/06/05 06:38:05;;;;;;;19.98;13.43;;;;;;;13.09;100.00;101506.88;10567610;28;20104;-82
2022/06/05 06:43:06;;;;;;;23.70;15.68;;;;;;;13.12;100.00;101506.50;10569037;28;20055;-78
2022/06/05 06:48:07;;;;;;;21.58;15.43;;;;;;;13.13;100.00;101494.56;10554463;28;20031;-77
2022/06/05 06:53:07;;;;;;;23.00;16.73;;;;;;;13.17;100.00;101484.13;10588751;28;20035;-77
2022/06/05 06:58:07;;;;;;;17.40;13.77;;;;;;;13.24;100.00;101479.56;10588890;28;20123;-78
2022/06/05 07:03:08;;;;;;;22.55;13.40;;;;;;;13.30;100.00;101477.94;10571212;28;20521;-78
2022/06/05 07:08:09;;;;;;;17.58;13.35;;;;;;;13.41;100.00;101470.06;10553758;28;20027;-78
2022/06/05 07:13:09;;;;;;;22.05;15.07;;;;;;;13.56;100.00;101456.31;10555680;28;20027;-78
2022/06/05 07:18:09;;;;;;;23.77;14.23;;;;;;;13.86;100.00;101442.38;10558564;28;20059;-77
2022/06/05 07:23:10;;;;;;;18.13;13.75;;;;;;;14.18;100.00;101438.03;10596657;28;20100;-78
2022/06/05 07:28:11;;;;;;;34.80;16.48;;;;;;;14.54;100.00;101445.81;10578485;28;20019;-78
2022/06/05 07:33:11;;;;;;;22.42;13.80;;;;;;;14.58;100.00;101425.28;10593381;28;20434;-80
2022/06/05 07:38:12;;;;;;;15.15;12.98;;;;;;;14.94;100.00;101415.78;10575809;28;20043;-80
2022/06/05 07:43:12;;;;;;;13.02;11.57;;;;;;;15.11;100.00;101413.41;10569697;28;20107;-80
2022/06/05 07:48:13;;;;;;;17.85;12.23;;;;;;;15.53;100.00;101408.41;10588023;28;20039;-78
2022/06/05 07:58:42;;;;;;;15.40;11.43;;;;;;;18.03;100.00;101399.81;10532545;28;20047;-82
2022/06/05 08:03:43;;;;;;;10.98;9.88;;;;;;;18.47;100.00;101386.59;10588158;28;20384;-80
2022/06/05 08:08:46;;;;;;;11.30;9.45;;;;;;;18.08;100.00;101377.16;10591437;28;20111;-80
2022/06/05 08:13:46;;;;;;;11.13;9.40;;;;;;;17.70;100.00;101375.59;10571692;28;20028;-80
2022/06/05 08:18:47;;;;;;;14.20;10.30;;;;;;;17.48;100.00;101371.72;10562529;28;20501;-80
2022/06/05 08:23:47;;;;;;;15.30;11.02;;;;;;;18.18;100.00;101388.38;10583403;28;20027;-79
2022/06/05 08:28:48;;;;;;;9.88;8.88;;;;;;;19.31;100.00;101388.19;10573493;28;20038;-79
2022/06/05 08:33:48;;;;;;;17.50;9.70;;;;;;;19.58;100.00;101383.78;10585149;28;20050;-78
2022/06/05 08:44:19;;;;;;;9.73;8.82;;;;;;;19.86;100.00;101406.88;10569089;28;20028;-76
2022/06/05 08:49:36;;;;;;;14.30;8.88;;;;;;;20.55;100.00;101420.41;10583210;28;20020;-75
2022/06/05 08:55:06;;;;;;;11.23;8.03;;;;;;;20.99;100.00;101401.25;10565594;28;20026;-75
2022/06/05 09:00:19;;;;;;;9.20;8.23;;;;;;;21.31;100.00;101401.38;10560216;28;20071;-75
2022/06/05 09:05:38;;;;;;;10.07;8.55;;;;;;;21.43;100.00;101402.09;10569270;28;20051;-75
2022/06/05 09:10:42;;;;;;;19.63;10.73;;;;;;;22.73;100.00;101412.94;10566430;28;20459;-74
2022/06/05 09:16:01;;;;;;;13.70;8.52;;;;;;;23.82;100.00;101407.66;10548220;28;20039;-74
2022/06/05 09:21:25;;;;;;;12.90;9.65;;;;;;;24.88;100.00;101401.53;10548504;28;20043;-75
2022/06/05 09:26:42;;;;;;;11.55;9.20;;;;;;;25.57;100.00;101394.34;10582157;28;20034;-77
2022/06/05 09:32:01;;;;;;;10.32;9.27;;;;;;;26.19;100.00;101388.06;10564544;28;20041;-75
2022/06/05 09:37:10;;;;;;;18.95;10.10;;;;;;;25.87;100.00;101388.59;10582100;28;20051;-75
2022/06/05 09:42:36;;;;;;;13.85;10.05;;;;;;;24.43;100.00;101354.28;10564049;28;20027;-77
2022/06/05 09:48:00;;;;;;;15.93;9.68;;;;;;;23.54;100.00;101380.47;10564040;28;20357;-76
2022/06/05 09:53:01;;;;;;;10.30;8.32;;;;;;;23.14;100.00;101368.19;10583066;28;20432;-76
2022/06/05 09:58:27;;;;;;;10.88;9.30;;;;;;;22.61;100.00;101378.38;10582628;28;20152;-77
2022/06/05 10:03:36;;;;;;;10.93;9.40;;;;;;;22.38;100.00;101363.88;10582360;28;20051;-72
2022/06/05 10:08:38;;;;;;;12.27;10.27;;;;;;;22.17;100.00;101364.81;10565301;28;20028;-77
2022/06/05 10:13:57;;;;;;;15.30;9.15;;;;;;;22.14;100.00;101357.03;10563232;28;20035;-76
2022/06/05 10:19:24;;;;;;;15.70;10.15;;;;;;;22.35;100.00;101352.53;10554237;28;20027;-77
2022/06/05 10:24:36;;;;;;;;;;;;;;;22.61;100.00;101343.31;10575632;28;20031;-77
2022/06/05 10:29:38;;;;;;;12.02;10.82;;;;;;;22.64;100.00;101331.72;10571369;28;19911;-75
2022/06/05 10:34:46;;;;;;;15.25;9.88;;;;;;;22.63;100.00;101332.00;10555089;28;20152;-74
2022/06/05 10:39:46;;;;;;;11.32;8.63;;;;;;;22.66;100.00;101328.72;10591653;28;20035;-75
2022/06/05 10:45:02;;;;;;;10.82;8.60;;;;;;;22.90;100.00;101321.63;10605446;28;20033;-75
2022/06/05 10:50:23;;;;;;;10.52;9.15;;;;;;;22.83;100.00;101314.72;10567006;28;20096;-75
2022/06/05 10:55:30;;;;;;;12.00;9.23;;;;;;;22.70;100.00;101316.03;10559473;28;20027;-74
2022/06/05 11:00:43;;;;;;;13.20;9.43;;;;;;;22.50;100.00;101314.81;10590745;28;20028;-77
2022/06/05 11:06:25;;;;;;;17.23;9.98;;;;;;;22.18;100.00;101312.13;10571489;28;20108;-73
2022/06/05 11:16:55;;;;;;;10.23;8.57;;;;;;;21.39;100.00;101307.28;10570783;28;20392;-72
2022/06/05 11:21:57;;;;;;;21.50;10.40;;;;;;;21.25;100.00;101295.81;10550461;28;20038;-72
2022/06/05 11:27:06;;;;;;;9.68;8.25;;;;;;;21.17;100.00;101298.22;10551076;28;20169;-70
2022/06/05 11:32:16;;;;;;;10.88;9.35;;;;;;;21.02;100.00;101290.59;10468068;28;20226;-76
2022/06/05 11:37:16;;;;;;;14.30;10.43;;;;;;;20.83;100.00;101292.84;10508672;28;20036;-76
2022/06/05 11:42:29;;;;;;;11.85;10.48;;;;;;;20.72;100.00;101291.88;10503091;28;20130;-73
2022/06/05 11:47:38;;;;;;;16.23;11.38;;;;;;;20.60;100.00;101282.91;10468962;28;20024;-77
2022/06/05 11:52:48;;;;;;;16.55;11.45;;;;;;;20.51;100.00;101290.78;10485182;28;20025;-73
2022/06/05 11:58:06;;;;;;;18.20;13.38;;;;;;;20.39;100.00;101284.56;10485237;28;20066;-76
2022/06/05 12:03:31;;;;;;;15.88;12.18;;;;;;;20.09;100.00;101283.00;10501201;28;20052;-74
2022/06/05 12:08:50;;;;;;;14.20;11.35;;;;;;;19.62;100.00;101276.97;10501978;28;20032;-73
2022/06/05 12:14:17;;;;;;;13.85;12.23;;;;;;;19.39;100.00;101266.97;10502688;28;20032;-75
2022/06/05 12:19:29;;;;;;;19.38;12.65;;;;;;;19.24;100.00;101273.84;10500693;28;20110;-76
2022/06/05 12:24:31;;;;;;;18.88;13.63;;;;;;;19.03;100.00;101271.78;10501321;28;20037;-77
2022/06/05 12:29:34;;;;;;;18.90;12.07;;;;;;;18.92;100.00;101270.78;10500445;28;20032;-75
2022/06/05 12:35:00;;;;;;;19.58;15.20;;;;;;;18.91;100.00;101262.75;10483893;28;20036;-77
2022/06/05 12:40:00;;;;;;;16.55;14.45;;;;;;;18.94;100.00;101256.78;10491224;28;20135;-77
2022/06/05 12:45:15;;;;;;;16.63;13.57;;;;;;;18.89;100.00;101245.69;10500681;28;20063;-77
2022/06/05 12:50:18;;;;;;;19.50;14.05;;;;;;;18.80;100.00;101256.25;10502903;28;20035;-78
2022/06/05 12:55:24;;;;;;;18.80;15.35;;;;;;;18.78;100.00;101270.19;10501037;28;20520;-77
2022/06/05 13:00:36;;;;;;;18.52;12.60;;;;;;;18.68;100.00;101277.34;10482844;28;20143;-76
2022/06/05 13:05:59;;;;;;;17.70;14.48;;;;;;;18.69;100.00;101287.25;10501406;28;20091;-77
2022/06/05 13:11:15;;;;;;;20.63;13.70;;;;;;;18.68;100.00;101289.16;10505782;28;20051;-74
2022/06/05 13:16:40;;;;;;;19.38;13.30;;;;;;;18.73;100.00;101282.97;10505146;28;20476;-70
2022/06/05 13:21:58;;;;;;;24.55;15.32;;;;;;;18.72;100.00;101284.88;10499001;28;20111;-70
2022/06/05 13:27:16;;;;;;;15.80;12.77;;;;;;;18.68;100.00;101299.31;10480871;28;20043;-71
2022/06/05 13:32:19;;;;;;;25.75;16.85;;;;;;;18.51;100.00;101294.56;10498865;28;20025;-71
2022/06/05 13:37:41;;;;;;;25.15;15.77;;;;;;;18.34;100.00;101294.44;10464213;28;20393;-71
2022/06/05 13:42:43;;;;;;;26.23;17.48;;;;;;;18.15;100.00;101301.13;10497572;28;20032;-73
2022/06/05 13:47:53;;;;;;;21.30;16.35;;;;;;;17.91;100.00;101293.97;10497737;28;20025;-73
2022/06/05 13:53:17;;;;;;;21.25;16.42;;;;;;;17.80;100.00;101293.72;10505559;28;20055;-72
2022/06/05 13:58:41;;;;;;;25.15;16.83;;;;;;;17.57;100.00;101299.94;10495935;28;20029;-73
2022/06/05 14:03:47;;;;;;;32.67;17.63;;;;;;;17.53;100.00;101292.44;10511933;28;20526;-73
2022/06/05 14:08:55;;;;;;;20.63;16.33;;;;;;;17.40;100.00;101288.84;10511969;28;20036;-73
2022/06/05 14:13:55;;;;;;;28.33;16.50;;;;;;;17.26;100.00;101287.38;10513599;28;20021;-73
2022/06/05 14:19:00;;;;;;;36.42;19.20;;;;;;;17.20;100.00;101288.31;10512067;28;20060;-75
2022/06/05 14:24:06;;;;;;;27.98;19.98;;;;;;;17.09;100.00;101283.59;10478997;28;20039;-73
2022/06/05 14:29:13;;;;;;;26.77;18.42;;;;;;;17.11;100.00;101279.56;10511792;28;20032;-68
2022/06/05 14:34:17;;;;;;;26.15;16.80;;;;;;;17.04;100.00;101278.84;10494818;28;20066;-73
2022/06/05 14:39:26;;;;;;;24.83;17.83;;;;;;;16.94;100.00;101278.53;10495148;28;20033;-73
2022/06/05 14:44:34;;;;;;;19.85;17.08;;;;;;;16.91;100.00;101279.00;10494259;28;20458;-72
2022/06/05 14:49:50;;;;;;;25.02;16.70;;;;;;;16.84;100.00;101273.59;10494259;28;20060;-72
2022/06/05 15:00:42;;;;;;;24.95;17.58;;;;;;;16.73;100.00;101277.09;10509148;28;20425;-72
2022/06/05 15:05:49;;;;;;;22.88;18.42;;;;;;;16.72;100.00;101265.31;10505548;28;20056;-72
2022/06/05 15:10:52;;;;;;;;;;;;;;;16.65;100.00;101274.66;10503595;28;20024;-71
2022/06/05 15:16:32;;;;;;;36.25;19.95;;;;;;;16.61;100.00;101263.34;10486869;28;19917;-71
2022/06/05 15:21:35;;;;;;;34.03;18.00;;;;;;;16.54;100.00;101264.50;10475093;28;20432;-71
2022/06/05 15:26:50;;;;;;;32.47;18.65;;;;;;;16.45;100.00;101262.06;10503232;28;20133;-71
2022/06/05 15:32:23;;;;;;;37.28;20.08;;;;;;;16.41;100.00;101260.84;10487426;28;20162;-72
2022/06/05 15:37:30;;;;;;;32.83;18.88;;;;;;;16.22;100.00;101264.63;10502639;28;20032;-71
2022/06/05 15:42:31;;;;;;;30.40;19.55;;;;;;;16.08;100.00;101274.00;10504939;28;20114;-71
2022/06/05 15:47:50;;;;;;;27.65;17.80;;;;;;;16.02;100.00;101265.66;10501945;28;20038;-71
2022/06/05 15:52:56;;;;;;;35.90;20.77;;;;;;;16.03;100.00;101255.56;10502650;28;20029;-71
2022/06/05 15:58:18;;;;;;;23.90;18.00;;;;;;;16.03;100.00;101245.47;10502766;28;20040;-72
2022/06/05 16:03:18;;;;;;;20.52;16.25;;;;;;;16.09;100.00;101238.28;10501769;28;20681;-73
2022/06/05 16:08:26;;;;;;;39.35;20.98;;;;;;;16.16;100.00;101228.13;10484672;28;20056;-71
2022/06/05 16:13:26;;;;;;;25.58;18.98;;;;;;;16.25;100.00;101239.59;10500268;28;20086;-71
2022/06/05 16:18:50;;;;;;;33.72;21.02;;;;;;;16.28;100.00;101277.41;10501543;28;20522;-70
2022/06/05 16:24:00;;;;;;;25.88;20.10;;;;;;;16.31;100.00;101271.47;10486625;28;20115;-72
2022/06/05 16:29:08;;;;;;;23.20;18.33;;;;;;;16.35;100.00;101264.47;10484697;28;20025;-71
2022/06/05 16:34:32;;;;;;;29.27;20.75;;;;;;;16.42;100.00;101264.41;10502275;28;20111;-72
2022/06/05 16:39:53;;;;;;;31.67;21.63;;;;;;;16.46;100.00;101265.63;10501349;28;20078;-71
2022/06/05 16:44:59;;;;;;;28.38;19.27;;;;;;;16.43;100.00;101271.53;10485393;28;20513;-71
2022/06/05 16:50:04;;;;;;;30.80;20.92;;;;;;;16.39;100.00;101271.16;10499818;28;20119;-71
2022/06/05 16:55:18;;;;;;;25.80;20.58;;;;;;;16.41;100.00;101281.88;10482102;28;20032;-72
2022/06/05 17:00:27;;;;;;;33.55;20.73;;;;;;;16.32;100.00;101283.25;10466309;28;20032;-72
2022/06/05 17:05:35;;;;;;;36.90;17.52;;;;;;;16.34;100.00;101303.81;10501639;28;20072;-71
2022/06/05 17:10:38;;;;;;;25.88;20.10;;;;;;;16.31;100.00;101295.25;10482760;28;20150;-72
2022/06/05 17:15:39;;;;;;;31.08;18.35;;;;;;;16.23;100.00;101296.34;10500355;28;20025;-70
2022/06/05 17:20:40;;;;;;;45.67;22.10;;;;;;;16.26;100.00;101301.38;10481355;28;20473;-71
2022/06/05 17:25:43;;;;;;;30.33;19.27;;;;;;;16.23;100.00;101288.16;10481531;28;20385;-71
2022/06/05 17:31:01;;;;;;;29.98;20.83;;;;;;;16.26;100.00;101277.59;10497395;28;20059;-71
2022/06/05 17:36:24;;;;;;;29.92;19.52;;;;;;;16.30;100.00;101277.16;10481039;28;20063;-71
2022/06/05 17:41:55;;;;;;;25.05;19.83;;;;;;;16.25;100.00;101280.56;10497611;28;20039;-70
2022/06/05 17:47:07;;;;;;;27.80;18.08;;;;;;;16.18;100.00;101264.25;10498052;28;20445;-71
2022/06/05 17:52:19;;;;;;;29.52;19.48;;;;;;;16.21;100.00;101265.69;10482099;28;20025;-71
2022/06/05 17:57:30;;;;;;;27.30;18.65;;;;;;;16.19;100.00;101252.25;10480446;28;20449;-72
2022/06/05 18:02:30;;;;;;;21.45;17.02;;;;;;;16.10;100.00;101258.25;10483204;28;20083;-72
2022/06/05 18:07:39;;;;;;;22.50;18.90;;;;;;;16.04;100.00;101265.44;10500452;28;20057;-71
2022/06/05 18:12:39;;;;;;;32.88;17.77;;;;;;;16.04;100.00;101257.22;10497288;28;20168;-71
2022/06/05 18:17:40;;;;;;;29.02;20.00;;;;;;;15.99;100.00;101263.38;10462903;28;20445;-72
2022/06/05 18:22:45;;;;;;;25.42;19.40;;;;;;;15.95;100.00;101259.44;10496447;28;20136;-71
2022/06/05 18:27:54;;;;;;;36.25;18.90;;;;;;;15.93;100.00;101275.22;10479611;28;20029;-70
2022/06/05 18:32:58;;;;;;;38.03;19.95;;;;;;;15.93;100.00;101282.56;10480972;28;20070;-72
2022/06/05 18:38:17;;;;;;;34.72;20.60;;;;;;;15.91;100.00;101280.03;10480118;28;20037;-72
2022/06/05 18:43:25;;;;;;;29.35;22.23;;;;;;;15.86;100.00;101287.22;10490246;28;20060;-72
2022/06/05 18:48:31;;;;;;;27.27;21.08;;;;;;;15.83;100.00;101274.88;10503415;28;20393;-72
2022/06/05 18:53:37;;;;;;;38.85;21.65;;;;;;;15.81;100.00;101287.91;10485765;28;20056;-72
2022/06/05 18:58:41;;;;;;;32.60;21.33;;;;;;;15.76;100.00;101280.41;10486228;28;20483;-71
2022/06/05 19:03:42;;;;;;;30.50;17.98;;;;;;;15.78;100.00;101302.00;10486363;28;20091;-72
2022/06/05 19:08:42;;;;;;;25.08;19.33;;;;;;;15.73;100.00;101304.56;10504748;28;20568;-72
2022/06/05 19:13:55;;;;;;;35.30;21.30;;;;;;;15.73;100.00;101302.69;10486860;28;20040;-71
2022/06/05 19:19:11;;;;;;;38.67;20.40;;;;;;;15.72;100.00;101308.34;10486105;28;20036;-71
2022/06/05 19:24:23;;;;;;;36.63;23.55;;;;;;;15.71;100.00;101323.91;10502233;28;20055;-71
2022/06/05 19:29:29;;;;;;;36.65;22.52;;;;;;;15.68;100.00;101318.06;10486143;28;20028;-71
2022/06/05 19:34:32;;;;;;;36.78;22.17;;;;;;;15.66;100.00;101328.31;10485643;28;20032;-71
2022/06/05 19:39:32;;;;;;;34.10;23.08;;;;;;;15.69;100.00;101336.09;10502828;28;20032;-71
2022/06/05 19:44:35;;;;;;;42.80;22.80;;;;;;;15.60;100.00;101327.28;10502687;28;20123;-72
2022/06/05 19:49:43;;;;;;;42.28;26.05;;;;;;;15.50;100.00;101335.97;10484892;28;20056;-72
2022/06/05 19:54:44;;;;;;;49.50;26.35;;;;;;;15.37;100.00;101341.50;10501756;28;20039;-72
2022/06/05 20:00:03;;;;;;;35.70;23.05;;;;;;;15.32;100.00;101334.00;10484366;28;20024;-73
2022/06/05 20:05:04;;;;;;;48.35;25.13;;;;;;;15.29;100.00;101333.59;10501542;28;20055;-72
2022/06/05 20:10:28;;;;;;;36.88;23.02;;;;;;;15.20;100.00;101324.81;10501485;28;20033;-72
2022/06/05 20:15:33;;;;;;;40.97;27.10;;;;;;;15.18;100.00;101334.25;10501237;28;20036;-72
2022/06/05 20:20:51;;;;;;;33.20;24.52;;;;;;;15.14;100.00;101339.31;10483901;28;20458;-74
2022/06/05 20:26:00;;;;;;;43.25;26.35;;;;;;;15.11;100.00;101334.31;10505502;28;20051;-72
2022/06/05 20:31:07;;;;;;;42.22;26.25;;;;;;;15.04;100.00;101319.88;10508737;28;20074;-73
2022/06/05 20:36:07;;;;;;;;;;;;;;;14.99;100.00;101330.56;10503073;28;20090;-72
2022/06/05 20:41:10;;;;;;;45.97;27.80;;;;;;;15.02;100.00;101330.16;10500968;28;20419;-72
2022/06/05 20:46:15;;;;;;;68.85;32.58;;;;;;;14.94;100.00;101328.50;10465005;28;20111;-73
2022/06/05 20:51:15;;;;;;;47.63;30.45;;;;;;;14.89;100.00;101325.56;10498740;28;20032;-72
2022/06/05 20:56:37;;;;;;;42.92;28.80;;;;;;;14.79;100.00;101320.59;10482261;28;20106;-73
2022/06/05 21:01:51;;;;;;;50.25;29.75;;;;;;;14.75;100.00;101323.97;10464863;28;20090;-75
2022/06/05 21:07:11;;;;;;;57.30;33.50;;;;;;;14.79;100.00;101317.03;10499215;28;20045;-73
2022/06/05 21:17:31;;;;;;;42.15;29.38;;;;;;;14.79;100.00;101334.22;10497711;28;20025;-73
2022/06/05 21:22:31;;;;;;;41.03;27.33;;;;;;;14.75;100.00;101338.44;10499451;28;20452;-73
2022/06/05 21:27:45;;;;;;;38.25;27.88;;;;;;;14.70;100.00;101348.28;10499350;28;20028;-73
2022/06/05 21:32:47;;;;;;;40.33;24.77;;;;;;;14.72;100.00;101362.56;10500082;28;20036;-73
2022/06/05 21:37:55;;;;;;;36.00;24.48;;;;;;;14.64;100.00;101360.88;10498104;28;20032;-73
2022/06/05 21:42:56;;;;;;;32.55;24.25;;;;;;;14.46;100.00;101375.16;10497413;28;20115;-72
2022/06/05 21:47:56;;;;;;;40.35;25.63;;;;;;;14.34;100.00;101379.56;10480663;28;20058;-72
2022/06/05 21:52:57;;;;;;;45.40;25.55;;;;;;;14.28;100.00;101374.97;10499017;28;20039;-71
2022/06/05 21:58:07;;;;;;;53.30;30.25;;;;;;;14.15;100.00;101378.53;10480445;28;20449;-72
2022/06/05 22:03:10;;;;;;;57.90;32.83;;;;;;;14.09;100.00;101380.19;10480064;28;20112;-71
2022/06/05 22:08:11;;;;;;;50.40;32.08;;;;;;;14.16;100.00;101385.63;10498207;28;20028;-71
2022/06/05 22:13:20;;;;;;;47.10;30.77;;;;;;;14.08;100.00;101385.84;10500147;28;20027;-71
2022/06/05 22:18:21;;;;;;;56.63;26.35;;;;;;;14.14;100.00;101377.69;10488947;28;20034;-72
2022/06/05 22:23:22;;;;;;;40.70;25.38;;;;;;;14.07;100.00;101376.84;10489270;28;20167;-72
2022/06/05 22:28:22;;;;;;;39.97;23.98;;;;;;;14.08;100.00;101386.69;10489391;28;20075;-72
2022/06/05 22:33:23;;;;;;;36.35;23.10;;;;;;;14.04;100.00;101388.16;10491324;28;20379;-71
2022/06/05 22:38:24;;;;;;;33.25;20.17;;;;;;;14.00;100.00;101386.88;10508236;28;20101;-71
2022/06/05 22:43:24;;;;;;;28.80;19.55;;;;;;;13.95;100.00;101394.84;10507702;28;20146;-71
2022/06/05 22:48:25;;;;;;;34.88;21.98;;;;;;;13.93;100.00;101391.50;10509771;28;20028;-71
2022/06/05 22:53:26;;;;;;;26.45;17.90;;;;;;;13.85;100.00;101383.53;10515535;28;20047;-72
2022/06/05 22:58:26;;;;;;;28.33;19.27;;;;;;;13.84;100.00;101390.00;10481033;28;20029;-71
2022/06/05 23:03:27;;;;;;;31.70;18.90;;;;;;;13.84;100.00;101392.72;10511126;28;20470;-70
2022/06/05 23:08:27;;;;;;;29.73;18.15;;;;;;;13.85;100.00;101389.00;10509983;28;20036;-72
2022/06/05 23:13:28;;;;;;;34.75;18.52;;;;;;;13.85;100.00;101399.88;10489463;28;20126;-72
2022/06/05 23:19:37;;;;;;;27.75;19.98;;;;;;;13.86;100.00;101402.38;10507347;28;20036;-72
2022/06/05 23:23:49;;;;;;;34.47;20.95;;;;;;;13.88;100.00;101396.72;10506871;28;20038;-71